Time;durP1;ratioP1;P1;durP2;ratioP2;P2;SDS_P1;SDS_P2;PMS_P1;PMS_P2;Temp;Humidity;BMP_temperature;BMP_pressure;BME280_temperature;BME280_humidity;BME280_pressure;Samples;Min_cycle;Max_cycle;Signal;HPM_P1;HPM_P2
2021/04/08 00:00:54;;;;;;;17.02;3.45;;;;;;;2.62;100.00;101773.09;5060430;28;20032;-70
2021/04/08 00:03:19;;;;;;;11.57;3.92;;;;;;;2.54;100.00;101769.66;5048568;28;20395;-70
2021/04/08 00:05:45;;;;;;;12.93;4.15;;;;;;;2.55;100.00;101772.28;5056539;28;20032;-70
2021/04/08 00:08:10;;;;;;;13.55;4.13;;;;;;;2.62;100.00;101767.78;5058509;28;20025;-70
2021/04/08 00:10:36;;;;;;;13.38;3.90;;;;;;;2.56;100.00;101774.06;5064921;28;20028;-70
2021/04/08 00:13:01;;;;;;;13.15;4.47;;;;;;;2.61;100.00;101776.63;5061781;28;20032;-69
2021/04/08 00:15:27;;;;;;;15.68;4.43;;;;;;;2.66;100.00;101782.72;5059301;28;20029;-70
2021/04/08 00:17:53;;;;;;;20.80;5.20;;;;;;;2.54;100.00;101785.56;5059824;28;20040;-70
2021/04/08 00:20:20;;;;;;;11.82;4.07;;;;;;;2.58;100.00;101779.34;5063192;28;20039;-71
2021/04/08 00:22:46;;;;;;;19.45;4.97;;;;;;;2.62;100.00;101789.00;5066767;28;20021;-70
2021/04/08 00:25:13;;;;;;;15.95;4.30;;;;;;;2.56;100.00;101778.47;5062734;28;20448;-70
2021/04/08 00:27:39;;;;;;;14.65;4.28;;;;;;;2.40;100.00;101781.38;5058667;28;20358;-70
2021/04/08 00:30:05;;;;;;;13.23;3.90;;;;;;;2.44;100.00;101780.41;5064807;28;20178;-71
2021/04/08 00:32:31;;;;;;;18.17;4.53;;;;;;;2.49;100.00;101782.09;5059278;28;20081;-70
2021/04/08 00:34:57;;;;;;;9.80;4.22;;;;;;;2.44;100.00;101779.53;5062245;28;20045;-70
2021/04/08 00:37:22;;;;;;;18.13;3.88;;;;;;;2.43;100.00;101781.31;5057465;28;20033;-70
2021/04/08 00:39:49;;;;;;;18.75;4.68;;;;;;;2.41;100.00;101783.09;5062313;28;20033;-70
2021/04/08 00:42:14;;;;;;;11.10;3.90;;;;;;;2.47;100.00;101789.22;5064214;28;20036;-70
2021/04/08 00:44:40;;;;;;;16.05;3.63;;;;;;;2.32;100.00;101785.88;5055292;28;20043;-70
2021/04/08 00:47:05;;;;;;;17.00;3.80;;;;;;;2.30;100.00;101787.66;5061442;28;20043;-70
2021/04/08 00:49:31;;;;;;;15.93;3.92;;;;;;;2.21;100.00;101782.50;5064301;28;20112;-69
2021/04/08 00:51:56;;;;;;;16.45;4.38;;;;;;;2.31;100.00;101789.41;5057518;28;20190;-70
2021/04/08 00:54:22;;;;;;;12.88;3.80;;;;;;;2.36;100.00;101795.53;5058596;28;20462;-70
2021/04/08 00:56:48;;;;;;;12.27;3.72;;;;;;;2.37;100.00;101799.06;5055206;28;20024;-70
2021/04/08 00:59:14;;;;;;;17.35;3.58;;;;;;;2.45;100.00;101786.59;5062084;28;20035;-70
2021/04/08 01:01:40;;;;;;;18.05;5.22;;;;;;;2.38;100.00;101795.50;5057823;28;20036;-70
2021/04/08 01:04:05;;;;;;;11.10;3.15;;;;;;;2.36;100.00;101798.19;5057389;28;20119;-70
2021/04/08 01:06:31;;;;;;;16.02;3.63;;;;;;;2.39;100.00;101798.16;5055476;28;20040;-69
2021/04/08 01:08:57;;;;;;;22.10;5.68;;;;;;;2.41;100.00;101793.69;5058431;28;20087;-70
2021/04/08 01:11:22;;;;;;;12.50;3.08;;;;;;;2.41;100.00;101804.28;5061216;28;20063;-70
2021/04/08 01:13:49;;;;;;;18.08;3.50;;;;;;;2.46;100.00;101806.91;5054900;28;20103;-69
2021/04/08 01:16:31;;;;;;;15.23;3.00;;;;;;;2.38;100.00;101807.00;5054972;28;20036;-70
2021/04/08 01:19:07;;;;;;;16.08;2.83;;;;;;;2.43;100.00;101805.16;5060302;28;20356;-71
2021/04/08 01:21:50;;;;;;;12.43;2.78;;;;;;;2.42;100.00;101806.03;5053916;28;20400;-70
2021/04/08 01:24:31;;;;;;;12.73;2.85;;;;;;;2.39;100.00;101813.16;5065635;28;20085;-71
2021/04/08 01:27:15;;;;;;;12.20;2.78;;;;;;;2.25;100.00;101815.13;5056127;28;20033;-70
2021/04/08 01:30:00;;;;;;;13.32;2.92;;;;;;;2.19;100.00;101810.78;5056150;28;20033;-69
2021/04/08 01:32:29;;;;;;;16.80;3.08;;;;;;;2.36;100.00;101819.38;5062229;28;20036;-70
2021/04/08 01:34:58;;;;;;;13.57;2.63;;;;;;;2.24;100.00;101816.88;5058626;28;20051;-70
2021/04/08 01:37:45;;;;;;;14.00;2.70;;;;;;;2.24;100.00;101816.88;5057228;28;20060;-69
2021/04/08 01:40:11;;;;;;;9.43;2.60;;;;;;;2.24;100.00;101818.66;5060364;28;20033;-70
2021/04/08 01:42:39;;;;;;;12.63;2.95;;;;;;;2.14;100.00;101817.03;5068086;28;20036;-70
2021/04/08 01:45:06;;;;;;;21.15;3.38;;;;;;;2.28;100.00;101813.31;5056793;28;20585;-70
2021/04/08 01:47:32;;;;;;;19.98;3.30;;;;;;;2.18;100.00;101814.31;5064737;28;20481;-70
2021/04/08 01:49:59;;;;;;;16.67;2.85;;;;;;;2.18;100.00;101819.59;5057337;28;20041;-70
2021/04/08 01:52:27;;;;;;;13.50;2.50;;;;;;;2.18;100.00;101824.03;5060287;28;20382;-70
2021/04/08 01:54:58;;;;;;;21.58;3.15;;;;;;;2.35;100.00;101820.25;5059215;28;20504;-70
2021/04/08 01:57:26;;;;;;;14.57;2.10;;;;;;;2.24;100.00;101827.47;5061397;28;20032;-70
2021/04/08 01:59:53;;;;;;;13.63;2.47;;;;;;;2.23;100.00;101817.78;5060987;28;20032;-70
2021/04/08 02:02:18;;;;;;;17.98;2.40;;;;;;;2.20;100.00;101819.59;5059459;28;20028;-70
2021/04/08 02:04:45;;;;;;;8.63;2.08;;;;;;;2.25;100.00;101817.75;5058461;28;20454;-69
2021/04/08 02:07:11;;;;;;;9.45;2.92;;;;;;;2.25;100.00;101821.28;5059501;28;20120;-70
2021/04/08 02:09:38;;;;;;;10.15;2.17;;;;;;;2.36;100.00;101827.31;5060557;28;20115;-70
2021/04/08 02:12:07;;;;;;;17.55;2.70;;;;;;;2.28;100.00;101821.28;5062571;28;20413;-70
2021/04/08 02:14:35;;;;;;;13.38;2.17;;;;;;;2.21;100.00;101824.88;5061355;28;20139;-70
2021/04/08 02:17:01;;;;;;;9.32;1.92;;;;;;;2.22;100.00;101821.31;5067085;28;20083;-70
2021/04/08 02:19:30;;;;;;;14.70;2.17;;;;;;;2.20;100.00;101828.41;5065865;28;20102;-70
2021/04/08 02:21:58;;;;;;;7.47;2.17;;;;;;;2.22;100.00;101826.59;5056408;28;20067;-70
2021/04/08 02:24:25;;;;;;;17.05;2.70;;;;;;;2.21;100.00;101824.00;5066573;28;20044;-70
2021/04/08 02:26:51;;;;;;;14.10;2.63;;;;;;;2.18;100.00;101819.59;5059718;28;20052;-70
2021/04/08 02:29:19;;;;;;;14.88;2.25;;;;;;;2.13;100.00;101816.16;5068379;28;20024;-70
2021/04/08 02:31:45;;;;;;;12.77;1.90;;;;;;;2.10;100.00;101816.16;5066957;28;20040;-70
2021/04/08 02:34:11;;;;;;;8.88;2.13;;;;;;;2.19;100.00;101816.06;5060808;28;20070;-70
2021/04/08 02:36:38;;;;;;;13.95;1.85;;;;;;;2.17;100.00;101814.31;5056061;28;20400;-70
2021/04/08 02:39:08;;;;;;;8.77;1.75;;;;;;;2.23;100.00;101819.53;5058721;28;20028;-70
2021/04/08 02:41:47;;;;;;;8.73;2.22;;;;;;;2.25;100.00;101817.75;5062045;28;20060;-69
2021/04/08 02:44:13;;;;;;;40.70;13.80;;;;;;;2.24;100.00;101818.66;5060639;28;20029;-70
2021/04/08 02:46:39;;;;;;;82.65;27.23;;;;;;;2.24;100.00;101827.47;5061494;28;20029;-70
2021/04/08 02:49:04;;;;;;;61.55;19.30;;;;;;;2.16;100.00;101825.84;5059451;28;20515;-71
2021/04/08 02:51:35;;;;;;;53.10;22.08;;;;;;;2.14;100.00;101828.50;5055956;28;20032;-70
2021/04/08 02:54:12;;;;;;;19.25;6.45;;;;;;;2.20;100.00;101836.38;5057506;28;20086;-70
2021/04/08 02:56:42;;;;;;;30.23;9.65;;;;;;;2.19;100.00;101831.97;5059842;28;20036;-69
2021/04/08 02:59:37;;;;;;;26.20;10.98;;;;;;;2.24;100.00;101830.13;5058861;28;20598;-69
2021/04/08 03:02:08;;;;;;;15.60;5.82;;;;;;;2.19;100.00;101829.31;5058562;28;20172;-70
2021/04/08 03:04:41;;;;;;;10.10;3.95;;;;;;;2.26;100.00;101823.06;5057743;28;20545;-70
2021/04/08 03:07:08;;;;;;;19.95;9.02;;;;;;;2.20;100.00;101823.13;5056411;28;20650;-70
2021/04/08 03:09:40;;;;;;;40.65;18.23;;;;;;;2.15;100.00;101830.25;5058391;28;20416;-70
2021/04/08 03:12:09;;;;;;;24.10;7.22;;;;;;;2.14;100.00;101823.19;5049486;28;20491;-70
2021/04/08 03:14:39;;;;;;;15.40;3.55;;;;;;;2.24;100.00;101835.44;5057641;28;21449;-70
2021/04/08 03:17:05;;;;;;;24.55;4.93;;;;;;;2.11;100.00;101828.53;5058918;28;20064;-70
2021/04/08 03:19:34;;;;;;;12.48;2.75;;;;;;;2.18;100.00;101829.31;5057995;28;20059;-70
2021/04/08 03:22:01;;;;;;;11.73;3.22;;;;;;;2.13;100.00;101828.50;5058597;28;20118;-70
2021/04/08 03:24:28;;;;;;;16.35;3.30;;;;;;;2.10;100.00;101826.75;5063124;28;20514;-70
2021/04/08 03:26:55;;;;;;;16.15;5.22;;;;;;;2.09;100.00;101830.34;5058156;28;20025;-70
2021/04/08 03:29:21;;;;;;;21.55;5.55;;;;;;;2.15;100.00;101830.25;5065659;28;20512;-71
2021/04/08 03:31:47;;;;;;;17.20;5.90;;;;;;;2.12;100.00;101835.56;5054168;28;20025;-70
2021/04/08 03:34:13;;;;;;;16.20;5.43;;;;;;;2.10;100.00;101837.34;5065923;28;20040;-70
2021/04/08 03:36:39;;;;;;;14.55;6.65;;;;;;;2.15;100.00;101835.56;5064112;28;20115;-70
2021/04/08 03:39:05;;;;;;;18.10;6.75;;;;;;;2.15;100.00;101840.84;5062096;28;20116;-71
2021/04/08 03:41:36;;;;;;;19.35;6.47;;;;;;;2.06;100.00;101835.66;5058096;28;20035;-70
2021/04/08 03:44:02;;;;;;;18.98;6.18;;;;;;;2.02;100.00;101837.47;5067731;28;20029;-69
2021/04/08 03:46:28;;;;;;;17.92;5.80;;;;;;;2.08;100.00;101833.00;5058667;28;20033;-70
2021/04/08 03:48:56;;;;;;;12.35;5.82;;;;;;;2.02;100.00;101836.59;5064387;28;20029;-70
2021/04/08 03:51:25;;;;;;;18.90;8.23;;;;;;;2.06;100.00;101835.66;5043834;28;20028;-70
2021/04/08 03:53:51;;;;;;;24.05;7.40;;;;;;;2.07;100.00;101852.41;5065638;28;20025;-69
2021/04/08 03:56:20;;;;;;;16.63;7.32;;;;;;;2.07;100.00;101841.81;5060876;28;20062;-70
2021/04/08 03:58:46;;;;;;;22.55;8.68;;;;;;;2.08;100.00;101843.59;5064784;28;20032;-70
2021/04/08 04:01:15;;;;;;;19.95;8.77;;;;;;;2.08;100.00;101849.75;5057008;28;20033;-71
2021/04/08 04:03:42;;;;;;;25.27;10.02;;;;;;;2.09;100.00;101848.88;5065044;28;20756;-70
2021/04/08 04:06:09;;;;;;;20.35;7.47;;;;;;;2.06;100.00;101843.59;5063353;28;20107;-70
2021/04/08 04:08:36;;;;;;;24.75;8.07;;;;;;;2.08;100.00;101839.16;5061474;28;20024;-70
2021/04/08 04:11:02;;;;;;;21.42;7.95;;;;;;;2.03;100.00;101833.06;5059501;28;20117;-70
2021/04/08 04:13:29;;;;;;;24.77;7.97;;;;;;;2.02;100.00;101844.53;5061030;28;20115;-70
2021/04/08 04:15:56;;;;;;;21.33;7.75;;;;;;;2.01;100.00;101842.78;5070076;28;20564;-70
2021/04/08 04:18:21;;;;;;;20.40;7.03;;;;;;;2.11;100.00;101855.00;5063811;28;20040;-70
2021/04/08 04:20:47;;;;;;;20.27;8.20;;;;;;;2.03;100.00;101848.94;5052794;28;20037;-70
2021/04/08 04:23:12;;;;;;;17.92;9.32;;;;;;;2.06;100.00;101846.25;5064208;28;20068;-70
2021/04/08 04:25:38;;;;;;;21.80;9.48;;;;;;;2.11;100.00;101849.69;5064810;28;20045;-70
2021/04/08 04:28:04;;;;;;;19.92;8.57;;;;;;;2.03;100.00;101846.28;5060946;28;20033;-70
2021/04/08 04:30:29;;;;;;;23.48;7.78;;;;;;;2.01;100.00;101848.94;5053642;28;20053;-70
2021/04/08 04:32:55;;;;;;;22.08;8.52;;;;;;;2.00;100.00;101851.59;5065484;28;20501;-70
2021/04/08 04:35:21;;;;;;;22.33;8.60;;;;;;;2.09;100.00;101851.53;5060212;28;20275;-70
2021/04/08 04:37:47;;;;;;;21.23;7.65;;;;;;;2.03;100.00;101854.22;5059909;28;20028;-70
2021/04/08 04:40:13;;;;;;;18.90;7.38;;;;;;;1.98;100.00;101856.03;5060722;28;20085;-70
2021/04/08 04:42:38;;;;;;;17.55;7.60;;;;;;;1.95;100.00;101854.31;5056184;28;20040;-71
2021/04/08 04:45:05;;;;;;;27.00;8.30;;;;;;;2.02;100.00;101860.41;5054459;28;20170;-69
2021/04/08 04:47:31;;;;;;;17.80;8.25;;;;;;;2.10;100.00;101858.53;5057506;28;20024;-69
2021/04/08 04:49:57;;;;;;;23.75;7.70;;;;;;;2.12;100.00;101862.06;5057775;28;20032;-69
2021/04/08 04:52:22;;;;;;;26.85;8.40;;;;;;;2.02;100.00;101858.66;5062764;28;20508;-69
2021/04/08 04:54:48;;;;;;;18.20;8.38;;;;;;;2.08;100.00;101860.34;5056371;28;20033;-69
2021/04/08 04:57:13;;;;;;;20.67;8.15;;;;;;;2.13;100.00;101866.47;5060342;28;20037;-70
2021/04/08 04:59:39;;;;;;;24.65;8.43;;;;;;;2.11;100.00;101867.38;5059151;28;20048;-69
2021/04/08 05:02:05;;;;;;;19.73;8.50;;;;;;;2.14;100.00;101862.94;5059527;28;20709;-69
2021/04/08 05:04:30;;;;;;;23.40;9.07;;;;;;;2.21;100.00;101867.25;5053315;28;20033;-69
2021/04/08 05:06:56;;;;;;;20.38;9.02;;;;;;;2.17;100.00;101865.53;5058551;28;20033;-69
2021/04/08 05:09:21;;;;;;;25.27;8.57;;;;;;;2.19;100.00;101870.81;5063574;28;20036;-69
2021/04/08 05:11:46;;;;;;;21.85;8.15;;;;;;;2.25;100.00;101873.41;5059196;28;20028;-70
2021/04/08 05:14:12;;;;;;;27.08;9.40;;;;;;;2.15;100.00;101872.63;5054011;28;20064;-70
2021/04/08 05:16:37;;;;;;;24.20;9.38;;;;;;;2.18;100.00;101877.88;5060379;28;20051;-69
2021/04/08 05:19:03;;;;;;;24.92;8.88;;;;;;;2.14;100.00;101875.28;5060770;28;20069;-69
2021/04/08 05:21:28;;;;;;;18.45;9.50;;;;;;;2.18;100.00;101877.88;5044075;28;20024;-69
2021/04/08 05:23:54;;;;;;;21.80;9.13;;;;;;;2.23;100.00;101875.16;5062641;28;20205;-70
2021/04/08 05:26:20;;;;;;;24.48;10.52;;;;;;;2.26;100.00;101872.50;5052510;28;20033;-69
2021/04/08 05:28:46;;;;;;;16.95;9.18;;;;;;;2.23;100.00;101878.69;5061748;28;20029;-69
2021/04/08 05:31:11;;;;;;;18.55;8.85;;;;;;;2.32;100.00;101870.66;5056038;28;20473;-69
2021/04/08 05:33:37;;;;;;;20.05;10.23;;;;;;;2.26;100.00;101876.03;5065407;28;20024;-70
2021/04/08 05:36:03;;;;;;;22.75;9.75;;;;;;;2.34;99.42;101876.81;5067555;28;20174;-70
2021/04/08 05:38:28;;;;;;;17.80;8.38;;;;;;;2.46;98.84;101882.88;5064559;28;20129;-70
2021/04/08 05:40:53;;;;;;;26.95;9.68;;;;;;;2.39;98.04;101885.59;5063584;28;20423;-70
2021/04/08 05:43:19;;;;;;;18.85;8.48;;;;;;;2.32;98.82;101883.03;5065397;28;20033;-70
2021/04/08 05:45:47;;;;;;;21.73;8.88;;;;;;;2.34;99.00;101887.44;5064943;28;20074;-71
2021/04/08 05:48:16;;;;;;;19.75;9.23;;;;;;;2.35;98.98;101890.91;5051275;28;20041;-70
2021/04/08 05:50:41;;;;;;;21.00;9.50;;;;;;;2.39;99.30;101885.59;5066613;28;20043;-70
2021/04/08 05:53:07;;;;;;;18.50;9.45;;;;;;;2.40;98.59;101890.00;5063646;28;20037;-70
2021/04/08 05:55:33;;;;;;;19.33;9.15;;;;;;;2.41;98.64;101897.03;5065994;28;20119;-70
2021/04/08 05:57:58;;;;;;;20.58;9.57;;;;;;;2.43;98.82;101895.25;5065904;28;20071;-70
2021/04/08 06:00:24;;;;;;;20.35;8.52;;;;;;;2.47;99.01;101900.53;5051454;28;20037;-70
2021/04/08 06:02:49;;;;;;;26.20;9.02;;;;;;;2.59;98.17;101895.06;5070064;28;20037;-70
2021/04/08 06:05:15;;;;;;;21.33;8.40;;;;;;;2.59;98.14;101905.66;5057382;28;20450;-70
2021/04/08 06:07:40;;;;;;;23.10;8.75;;;;;;;2.69;97.37;101902.00;5049768;28;20088;-69
2021/04/08 06:10:06;;;;;;;23.55;9.40;;;;;;;2.66;97.47;101902.91;5061738;28;20116;-70
2021/04/08 06:12:32;;;;;;;20.33;9.20;;;;;;;2.76;97.02;101906.31;5061252;28;20044;-70
2021/04/08 06:14:58;;;;;;;15.02;8.00;;;;;;;2.85;96.43;101908.84;5053379;28;20061;-71
2021/04/08 06:17:23;;;;;;;24.40;8.93;;;;;;;2.85;96.31;101908.84;5070724;28;20483;-71
2021/04/08 06:19:49;;;;;;;19.83;8.38;;;;;;;2.91;95.28;101908.75;5066216;28;20021;-70
2021/04/08 06:22:16;;;;;;;16.42;7.90;;;;;;;2.91;95.25;101916.72;5068309;28;20084;-70
2021/04/08 06:24:41;;;;;;;18.48;8.52;;;;;;;3.05;94.04;101914.75;5068984;28;20040;-70
2021/04/08 06:27:07;;;;;;;22.63;8.02;;;;;;;3.08;93.80;101911.19;5062717;28;20028;-70
2021/04/08 06:29:32;;;;;;;18.67;8.32;;;;;;;3.02;94.24;101912.16;5062388;28;20497;-70
2021/04/08 06:31:58;;;;;;;18.58;8.20;;;;;;;3.16;93.97;101920.75;5066295;28;20064;-70
2021/04/08 06:34:24;;;;;;;18.95;8.15;;;;;;;3.20;93.41;101927.81;5063944;28;20033;-70
2021/04/08 06:36:49;;;;;;;16.33;7.53;;;;;;;3.29;93.13;101926.78;5063268;28;20029;-70
2021/04/08 06:39:15;;;;;;;17.70;7.60;;;;;;;3.42;92.03;101922.16;5061743;28;20040;-70
2021/04/08 06:41:41;;;;;;;18.10;7.45;;;;;;;3.45;91.27;101922.13;5068673;28;20044;-71
2021/04/08 06:44:08;;;;;;;22.60;7.53;;;;;;;3.40;91.74;101926.59;5067206;28;20033;-70
2021/04/08 06:46:37;;;;;;;18.25;7.18;;;;;;;3.51;91.85;101928.22;5058682;28;20070;-70
2021/04/08 06:49:28;;;;;;;21.42;7.57;;;;;;;3.48;92.36;101937.97;5062207;28;20033;-70
2021/04/08 06:51:58;;;;;;;17.23;7.05;;;;;;;3.61;90.64;101934.22;5062335;28;20036;-71
2021/04/08 06:54:24;;;;;;;23.40;6.63;;;;;;;3.66;88.65;101943.00;5063103;28;20040;-71
2021/04/08 06:56:50;;;;;;;15.35;7.82;;;;;;;3.67;88.59;101939.44;5057090;28;20028;-70
2021/04/08 06:59:16;;;;;;;18.50;7.05;;;;;;;3.67;87.56;101950.06;5047473;28;20599;-71
2021/04/08 07:01:44;;;;;;;12.90;6.03;;;;;;;3.74;87.12;101951.72;5064312;28;20032;-71
2021/04/08 07:04:11;;;;;;;16.13;6.75;;;;;;;3.73;88.16;101939.34;5067483;28;20103;-70
2021/04/08 07:06:36;;;;;;;18.17;6.22;;;;;;;3.73;88.85;101944.66;5061590;28;20056;-70
2021/04/08 07:09:05;;;;;;;19.48;7.28;;;;;;;3.75;88.86;101950.81;5061035;28;20425;-70
2021/04/08 07:11:30;;;;;;;18.33;6.38;;;;;;;3.91;88.55;101951.44;5068781;28;20029;-71
2021/04/08 07:13:56;;;;;;;15.90;6.43;;;;;;;4.03;86.43;101952.09;5060619;28;20844;-70
2021/04/08 07:16:22;;;;;;;17.63;6.05;;;;;;;4.01;85.02;101956.53;5067723;28;20036;-70
2021/04/08 07:18:49;;;;;;;13.70;6.18;;;;;;;4.26;85.03;101950.81;5056564;28;20059;-70
2021/04/08 07:21:14;;;;;;;15.77;5.68;;;;;;;4.28;86.10;101956.97;5061392;28;20048;-71
2021/04/08 07:24:09;;;;;;;13.15;5.70;;;;;;;4.47;84.77;101961.03;5053903;28;20078;-70
2021/04/08 07:27:04;;;;;;;12.18;6.15;;;;;;;4.62;84.41;101958.06;5061918;28;20104;-70
2021/04/08 07:29:39;;;;;;;15.02;5.55;;;;;;;4.66;81.74;101957.09;5050761;28;20056;-70
2021/04/08 07:32:13;;;;;;;11.25;5.43;;;;;;;4.70;80.43;101958.78;5067690;28;20033;-70
2021/04/08 07:34:42;;;;;;;16.00;6.00;;;;;;;4.83;81.56;101959.41;5037727;28;20077;-70
2021/04/08 07:37:08;;;;;;;22.30;5.78;;;;;;;4.83;80.08;101965.59;5055367;28;20025;-70
2021/04/08 07:39:39;;;;;;;14.48;5.05;;;;;;;5.06;78.63;101969.56;5065821;28;20020;-70
2021/04/08 07:42:31;;;;;;;13.48;5.47;;;;;;;5.09;78.51;101973.03;5064859;28;20056;-70
2021/04/08 07:45:04;;;;;;;15.00;5.28;;;;;;;5.27;78.63;101961.97;5052750;28;20644;-70
2021/04/08 07:47:35;;;;;;;14.68;6.07;;;;;;;5.37;77.54;101967.94;5063637;28;20112;-70
2021/04/08 07:50:03;;;;;;;12.43;4.82;;;;;;;5.39;74.97;101981.25;5066559;28;20035;-70
2021/04/08 07:52:31;;;;;;;17.75;5.25;;;;;;;5.53;74.05;101964.03;5064730;28;20291;-71
2021/04/08 07:55:03;;;;;;;14.82;5.03;;;;;;;5.73;74.95;101966.22;5062336;28;20040;-70
2021/04/08 07:57:30;;;;;;;12.90;5.15;;;;;;;5.82;74.49;101971.31;5067441;28;20025;-71
2021/04/08 07:59:56;;;;;;;11.50;5.15;;;;;;;5.95;72.87;101978.13;5063465;28;20098;-71
2021/04/08 08:02:26;;;;;;;12.68;4.45;;;;;;;6.04;71.45;101977.03;5065106;28;20033;-70
2021/04/08 08:05:15;;;;;;;12.98;5.20;;;;;;;6.18;71.42;101979.31;5063911;28;20037;-71
2021/04/08 08:07:41;;;;;;;13.02;4.60;;;;;;;6.18;69.45;101980.19;5061112;28;20390;-71
2021/04/08 08:10:07;;;;;;;15.25;4.70;;;;;;;6.13;68.84;101987.44;5059560;28;20040;-71
2021/04/08 08:12:33;;;;;;;9.73;4.07;;;;;;;6.10;67.81;101979.53;5065876;28;20451;-71
2021/04/08 08:15:22;;;;;;;12.30;4.20;;;;;;;6.04;69.56;101982.38;5063385;28;20300;-71
2021/04/08 08:17:48;;;;;;;10.82;4.65;;;;;;;6.13;69.54;101982.13;5055458;28;20124;-71
2021/04/08 08:20:15;;;;;;;18.48;5.05;;;;;;;6.34;68.04;101981.56;5061325;28;20123;-71
2021/04/08 08:22:42;;;;;;;12.55;4.78;;;;;;;6.49;66.94;101986.47;5066957;28;20024;-71
2021/04/08 08:25:08;;;;;;;6.22;4.22;;;;;;;6.60;64.94;101986.19;5060629;28;20040;-71
2021/04/08 08:27:48;;;;;;;13.52;4.30;;;;;;;6.65;65.35;101986.06;5063029;28;20032;-71
2021/04/08 08:30:51;;;;;;;12.50;4.47;;;;;;;6.76;66.90;101984.84;5054128;28;20033;-71
2021/04/08 08:33:18;;;;;;;9.55;3.85;;;;;;;6.83;63.03;101990.88;5061646;28;20452;-71
2021/04/08 08:35:45;;;;;;;8.02;3.90;;;;;;;6.90;63.74;101981.78;5064299;28;20111;-71
2021/04/08 08:38:20;;;;;;;12.90;4.40;;;;;;;7.30;63.07;101989.47;5058371;28;20098;-70
2021/04/08 08:40:47;;;;;;;9.45;4.07;;;;;;;7.96;60.53;101990.94;5067504;28;20032;-71
2021/04/08 08:43:14;;;;;;;11.23;4.57;;;;;;;8.13;57.93;101997.47;5056574;28;20401;-71
2021/04/08 08:45:40;;;;;;;8.02;4.03;;;;;;;8.23;58.12;101994.44;5052383;28;20156;-71
2021/04/08 08:48:13;;;;;;;7.95;4.55;;;;;;;8.19;58.35;101995.50;5051775;28;20540;-71
2021/04/08 08:50:39;;;;;;;12.95;4.95;;;;;;;8.23;57.91;101991.78;5055716;28;20052;-71
2021/04/08 08:53:07;;;;;;;8.95;3.50;;;;;;;8.35;55.24;101996.75;5055225;28;20040;-71
2021/04/08 08:55:33;;;;;;;10.23;3.75;;;;;;;8.51;57.77;101989.94;5054606;28;20039;-71
2021/04/08 08:57:59;;;;;;;10.68;3.75;;;;;;;8.60;55.80;101984.25;5059811;28;20036;-71
2021/04/08 09:00:28;;;;;;;12.32;3.83;;;;;;;8.72;56.40;101990.94;5060598;28;20036;-72
2021/04/08 09:02:57;;;;;;;8.07;4.00;;;;;;;8.86;59.17;101984.19;5052194;28;20037;-71
2021/04/08 09:05:27;;;;;;;12.55;3.25;;;;;;;8.98;55.14;101987.31;5061728;28;20172;-71
2021/04/08 09:07:54;;;;;;;10.43;3.92;;;;;;;9.14;55.86;101993.84;5046954;28;20028;-71
2021/04/08 09:10:30;;;;;;;8.15;3.63;;;;;;;9.39;55.58;101983.91;5051181;28;20064;-71
2021/04/08 09:12:56;;;;;;;10.80;4.30;;;;;;;9.62;52.66;101997.31;5054896;28;20562;-71
2021/04/08 09:15:21;;;;;;;16.13;4.22;;;;;;;9.65;49.18;101991.81;5059953;28;20033;-71
2021/04/08 09:17:54;;;;;;;8.65;3.47;;;;;;;9.88;48.66;101998.03;5064377;28;20171;-72
2021/04/08 09:20:19;;;;;;;9.10;4.28;;;;;;;10.06;50.10;101999.97;5056968;28;20370;-72
2021/04/08 09:23:03;;;;;;;6.65;3.65;;;;;;;9.91;47.83;101997.91;5062603;28;20111;-72
2021/04/08 09:25:37;;;;;;;17.05;3.88;;;;;;;9.72;49.27;101996.00;5071435;28;20028;-72
2021/04/08 09:28:08;;;;;;;9.02;4.10;;;;;;;9.56;48.81;101997.56;5065412;28;20124;-72
2021/04/08 09:33:44;;;;;;;7.30;3.55;;;;;;;9.41;43.72;101995.47;5049161;28;20276;-72
2021/04/08 09:36:39;;;;;;;10.48;5.03;;;;;;;9.37;47.36;101991.16;5067441;28;20033;-72
2021/04/08 09:39:05;;;;;;;5.38;3.22;;;;;;;9.38;47.79;101986.69;5060877;28;20485;-72
2021/04/08 09:41:50;;;;;;;12.93;4.53;;;;;;;9.61;49.23;101979.47;5060627;28;20074;-72
2021/04/08 09:44:18;;;;;;;11.88;3.88;;;;;;;9.59;46.99;101992.06;5064326;28;20048;-72
2021/04/08 09:46:50;;;;;;;11.65;3.58;;;;;;;9.75;46.68;101987.81;5051681;28;20050;-72
2021/04/08 09:49:35;;;;;;;10.57;3.57;;;;;;;9.64;43.35;101990.06;5068073;28;20107;-72
2021/04/08 09:52:01;;;;;;;7.13;2.88;;;;;;;9.40;42.78;101985.66;5065036;28;20318;-73
2021/04/08 09:54:42;;;;;;;6.95;2.80;;;;;;;9.42;41.09;101985.63;5055577;28;20683;-72
2021/04/08 09:57:09;;;;;;;6.97;2.95;;;;;;;9.35;41.16;101974.25;5054382;28;20677;-72
2021/04/08 09:59:54;;;;;;;8.32;2.50;;;;;;;9.08;42.29;101978.00;5062991;28;20024;-72
2021/04/08 10:02:20;;;;;;;7.03;2.30;;;;;;;8.99;41.76;101970.31;5041635;28;20171;-72
2021/04/08 10:05:10;;;;;;;6.40;3.30;;;;;;;9.11;43.42;101975.22;5059623;28;20033;-72
2021/04/08 10:07:53;;;;;;;6.85;2.90;;;;;;;8.91;44.53;101965.25;5060561;28;20031;-72
2021/04/08 10:10:20;;;;;;;8.30;3.03;;;;;;;8.98;45.59;101972.13;5066548;28;20048;-72
2021/04/08 10:12:45;;;;;;;8.18;3.72;;;;;;;8.99;43.76;101973.00;5057264;28;20024;-72
2021/04/08 10:15:15;;;;;;;5.22;2.80;;;;;;;9.01;43.45;101965.78;5056056;28;20036;-71
2021/04/08 10:17:40;;;;;;;8.10;3.28;;;;;;;9.00;43.45;101964.03;5058411;28;20391;-72
2021/04/08 10:20:07;;;;;;;8.70;2.95;;;;;;;8.92;43.93;101969.69;5055250;28;20033;-72
2021/04/08 10:22:43;;;;;;;5.70;3.00;;;;;;;9.12;44.01;101968.94;5061077;28;20554;-72
2021/04/08 10:25:10;;;;;;;7.43;2.70;;;;;;;9.24;44.03;101974.69;5057861;28;20032;-71
2021/04/08 10:27:36;;;;;;;11.27;3.03;;;;;;;9.28;43.52;101967.41;5058923;28;20048;-72
2021/04/08 10:30:15;;;;;;;6.05;3.28;;;;;;;9.16;42.30;101970.56;5037723;28;20496;-72
2021/04/08 10:32:42;;;;;;;5.65;3.42;;;;;;;9.13;42.26;101965.31;5035352;28;20366;-72
2021/04/08 10:35:37;;;;;;;9.20;3.08;;;;;;;9.19;42.50;101965.09;5037491;28;20033;-72
2021/04/08 10:38:06;;;;;;;8.07;3.10;;;;;;;8.98;41.40;101961.41;5034069;28;20044;-71
2021/04/08 10:40:34;;;;;;;14.52;4.95;;;;;;;9.03;40.78;101961.22;5055264;28;20086;-72
2021/04/08 10:43:13;;;;;;;44.20;3.72;;;;;;;8.98;42.47;101964.09;5054596;28;20037;-71
2021/04/08 10:45:59;;;;;;;7.65;3.05;;;;;;;9.19;42.28;101970.44;5056663;28;20116;-72
2021/04/08 10:48:26;;;;;;;10.45;3.63;;;;;;;9.45;42.64;101956.88;5061704;28;20163;-72
2021/04/08 10:50:53;;;;;;;12.27;3.40;;;;;;;9.89;39.66;101972.97;5065935;28;20020;-72
2021/04/08 10:53:20;;;;;;;7.60;3.80;;;;;;;9.95;38.84;101956.59;5046534;28;20029;-72
2021/04/08 10:55:49;;;;;;;11.38;3.78;;;;;;;10.01;41.14;101956.34;5057559;28;20025;-72
2021/04/08 10:58:27;;;;;;;10.68;4.03;;;;;;;9.72;39.11;101957.56;5060916;28;20120;-71
2021/04/08 11:00:57;;;;;;;10.13;4.40;;;;;;;9.51;39.59;101958.44;5061297;28;20044;-72
2021/04/08 11:03:24;;;;;;;8.38;3.85;;;;;;;9.55;41.37;101958.28;5064386;28;20041;-72
2021/04/08 11:05:50;;;;;;;14.77;3.63;;;;;;;9.67;39.83;101962.25;5059548;28;20029;-72
2021/04/08 11:08:15;;;;;;;8.52;3.53;;;;;;;9.77;41.46;101962.75;5055978;28;20024;-72
2021/04/08 11:10:41;;;;;;;6.05;3.25;;;;;;;9.62;40.32;101954.41;5053388;28;20028;-72
2021/04/08 11:13:09;;;;;;;7.88;3.78;;;;;;;9.62;39.56;101967.81;5064804;28;20132;-72
2021/04/08 11:15:36;;;;;;;5.38;3.88;;;;;;;9.66;40.80;101961.38;5062018;28;20028;-72
2021/04/08 11:18:05;;;;;;;8.10;4.00;;;;;;;9.82;40.70;101958.06;5059575;28;20044;-72
2021/04/08 11:20:33;;;;;;;8.90;3.28;;;;;;;9.96;41.18;101956.56;5054338;28;20066;-72
2021/04/08 11:23:00;;;;;;;6.78;3.60;;;;;;;9.80;39.41;101955.47;5056445;28;20036;-72
2021/04/08 11:25:29;;;;;;;6.55;3.83;;;;;;;9.85;40.36;101960.63;5058702;28;20028;-72
2021/04/08 11:27:56;;;;;;;8.68;4.00;;;;;;;9.85;39.37;101963.31;5063573;28;20497;-72
2021/04/08 11:30:30;;;;;;;7.03;4.18;;;;;;;10.03;39.37;101967.91;5054725;28;20032;-71
2021/04/08 11:32:56;;;;;;;9.18;4.30;;;;;;;10.34;38.99;101954.06;5049932;28;20049;-72